createdAt,value
2023-10-07T00:01:03.569Z,11.00
2023-10-07T00:03:40.339Z,11.20
2023-10-07T00:06:11.309Z,7.50
2023-10-07T00:08:40.231Z,9.80
2023-10-07T00:11:13.131Z,10.20
2023-10-07T00:13:44.649Z,11.40
2023-10-07T00:16:15.940Z,11.20
2023-10-07T00:18:44.813Z,10.00
2023-10-07T00:21:28.374Z,10.70
2023-10-07T00:23:59.045Z,10.30
2023-10-07T00:26:28.164Z,9.40
2023-10-07T00:29:03.432Z,10.90
2023-10-07T00:31:35.393Z,9.80
2023-10-07T00:34:07.005Z,9.40
2023-10-07T00:36:35.212Z,10.00
2023-10-07T00:39:10.891Z,9.90
2023-10-07T00:41:46.562Z,8.90
2023-10-07T00:44:24.747Z,9.50
2023-10-07T00:47:17.382Z,9.60
2023-10-07T00:49:50.121Z,12.10
2023-10-07T00:52:29.934Z,10.60
2023-10-07T00:55:09.768Z,10.30
2023-10-07T00:57:38.738Z,9.70
2023-10-07T01:00:24.442Z,10.20
2023-10-07T01:03:05.187Z,9.30
2023-10-07T01:05:36.966Z,9.70
2023-10-07T01:08:07.692Z,9.60
2023-10-07T01:10:39.888Z,9.80
2023-10-07T01:13:27.189Z,9.10
2023-10-07T01:15:55.381Z,10.00
2023-10-07T01:18:23.703Z,10.00
2023-10-07T01:20:51.826Z,10.40
2023-10-07T01:23:24.244Z,10.60
2023-10-07T01:25:52.448Z,9.80
2023-10-07T01:28:22.352Z,11.20
2023-10-07T01:31:10.941Z,9.70
2023-10-07T01:33:40.722Z,8.70
2023-10-07T01:36:17.726Z,10.40
2023-10-07T01:38:52.230Z,10.40
2023-10-07T01:41:23.311Z,8.90
2023-10-07T01:44:01.633Z,9.30
2023-10-07T01:49:05.494Z,9.20
2023-10-07T01:51:34.015Z,9.30
2023-10-07T01:54:05.449Z,10.30
2023-10-07T01:56:34.637Z,10.30
2023-10-07T01:59:15.165Z,10.10
2023-10-07T02:02:05.008Z,12.00
2023-10-07T02:04:34.488Z,9.90
2023-10-07T02:07:03.708Z,8.70
2023-10-07T02:12:10.575Z,10.00
2023-10-07T02:14:40.023Z,9.40
2023-10-07T02:17:09.934Z,10.40
2023-10-07T02:19:41.711Z,11.30
2023-10-07T02:22:21.927Z,12.30
2023-10-07T02:25:01.580Z,13.30
2023-10-07T02:27:39.191Z,13.20
2023-10-07T02:30:17.730Z,13.70
2023-10-07T02:32:48.054Z,12.20
2023-10-07T02:35:21.494Z,11.80
2023-10-07T02:37:52.590Z,12.30
2023-10-07T02:40:23.465Z,13.10
2023-10-07T02:42:53.089Z,13.10
2023-10-07T02:45:26.006Z,13.60
2023-10-07T02:48:02.074Z,13.40
2023-10-07T02:50:32.730Z,12.80
2023-10-07T02:53:04.190Z,12.60
2023-10-07T02:55:46.453Z,12.40
2023-10-07T02:58:28.608Z,13.40
2023-10-07T03:01:12.115Z,11.50
2023-10-07T03:03:50.414Z,11.00
2023-10-07T03:06:18.910Z,10.90
2023-10-07T03:08:47.207Z,12.30
2023-10-07T03:11:25.302Z,11.20
2023-10-07T03:14:00.403Z,9.60
2023-10-07T03:16:29.734Z,12.30
2023-10-07T03:19:03.954Z,11.50
2023-10-07T03:21:41.507Z,11.30
2023-10-07T03:24:12.823Z,10.20
2023-10-07T03:26:44.084Z,12.20
2023-10-07T03:29:30.355Z,18.70
2023-10-07T03:32:01.288Z,14.20
2023-10-07T03:34:29.754Z,14.60
2023-10-07T03:37:09.759Z,14.20
2023-10-07T03:39:58.298Z,14.80
2023-10-07T03:42:26.583Z,15.40
2023-10-07T03:44:54.754Z,14.50
2023-10-07T03:47:23.103Z,14.40
2023-10-07T03:49:54.903Z,15.10
2023-10-07T03:52:29.290Z,15.80
2023-10-07T03:55:01.200Z,15.60
2023-10-07T03:57:29.604Z,15.80
2023-10-07T03:59:59.367Z,15.60
2023-10-07T04:02:30.849Z,15.30
2023-10-07T04:05:11.028Z,14.20
2023-10-07T04:07:39.924Z,16.10
2023-10-07T04:10:20.703Z,14.60
2023-10-07T04:12:50.250Z,15.20
2023-10-07T04:15:19.510Z,14.40
2023-10-07T04:17:49.924Z,14.30
2023-10-07T04:20:23.377Z,15.70
2023-10-07T04:23:02.402Z,15.10
2023-10-07T04:25:32.427Z,15.50
2023-10-07T04:28:00.901Z,15.90
2023-10-07T04:30:40.187Z,16.30
2023-10-07T04:33:11.261Z,16.70
2023-10-07T04:35:40.185Z,13.60
2023-10-07T04:38:20.201Z,15.40
2023-10-07T04:41:06.857Z,13.30
2023-10-07T04:43:39.012Z,14.10
2023-10-07T04:46:23.570Z,13.30
2023-10-07T04:49:14.254Z,16.00
2023-10-07T04:51:42.681Z,14.10
2023-10-07T04:54:24.014Z,13.90
2023-10-07T04:56:55.271Z,15.70
2023-10-07T04:59:25.363Z,18.10
2023-10-07T05:02:13.752Z,16.10
2023-10-07T05:04:43.052Z,15.80
2023-10-07T05:07:12.120Z,14.20
2023-10-07T05:09:40.182Z,16.30
2023-10-07T05:12:08.926Z,16.00
2023-10-07T05:14:37.518Z,16.10
2023-10-07T05:17:11.621Z,18.90
2023-10-07T05:19:39.834Z,15.30
2023-10-07T05:22:15.988Z,16.90
2023-10-07T05:24:48.116Z,15.40
2023-10-07T05:27:17.087Z,17.80
2023-10-07T05:29:48.004Z,15.60
2023-10-07T05:32:18.372Z,23.10
2023-10-07T05:34:49.816Z,17.30
2023-10-07T05:37:18.105Z,19.70
2023-10-07T05:39:46.800Z,15.40
2023-10-07T05:42:14.934Z,16.00
2023-10-07T05:44:43.049Z,14.40
2023-10-07T05:47:11.642Z,14.90
2023-10-07T05:49:40.221Z,13.00
2023-10-07T05:52:08.633Z,14.80
2023-10-07T05:54:36.924Z,16.10
2023-10-07T05:57:06.872Z,16.60
2023-10-07T05:59:35.920Z,15.70
2023-10-07T06:02:08.718Z,16.20
2023-10-07T06:04:37.412Z,16.00
2023-10-07T06:07:08.853Z,16.90
2023-10-07T06:09:43.221Z,19.00
2023-10-07T06:12:13.394Z,19.30
2023-10-07T06:14:41.818Z,18.40
2023-10-07T06:17:12.920Z,20.50
2023-10-07T06:19:41.751Z,18.80
2023-10-07T06:22:13.411Z,19.00
2023-10-07T06:24:43.073Z,19.00
2023-10-07T06:27:21.449Z,17.10
2023-10-07T06:29:51.896Z,17.40
2023-10-07T06:32:27.330Z,16.80
2023-10-07T06:35:00.693Z,16.30
2023-10-07T06:37:31.815Z,14.30
2023-10-07T06:40:01.704Z,16.00
2023-10-07T06:42:30.152Z,16.30
2023-10-07T06:45:03.774Z,15.10
2023-10-07T06:47:33.546Z,16.30
2023-10-07T06:50:04.936Z,15.10
2023-10-07T06:52:34.106Z,17.40
2023-10-07T06:55:09.197Z,15.30
2023-10-07T06:57:38.740Z,16.20
2023-10-07T07:00:13.212Z,17.30
2023-10-07T07:02:45.138Z,13.90
2023-10-07T07:05:17.394Z,13.90
2023-10-07T07:07:48.945Z,14.30
2023-10-07T07:10:17.765Z,14.40
2023-10-07T07:12:46.211Z,14.30
2023-10-07T07:15:27.899Z,13.70
2023-10-07T07:18:14.666Z,13.50
2023-10-07T07:20:50.602Z,15.00
2023-10-07T07:23:22.650Z,14.30
2023-10-07T07:26:07.778Z,15.00
2023-10-07T07:28:36.127Z,13.10
2023-10-07T07:31:11.982Z,13.60
2023-10-07T07:33:40.392Z,13.80
2023-10-07T07:36:20.634Z,12.60
2023-10-07T07:38:49.052Z,13.70
2023-10-07T07:41:35.611Z,12.50
2023-10-07T07:44:11.414Z,12.70
2023-10-07T07:46:57.342Z,14.00
2023-10-07T07:49:29.335Z,12.20
2023-10-07T07:51:57.816Z,11.80
2023-10-07T07:54:26.207Z,11.40
2023-10-07T07:56:56.358Z,11.20
2023-10-07T07:59:25.577Z,11.80
2023-10-07T08:02:03.663Z,12.20
2023-10-07T08:04:51.324Z,9.30
2023-10-07T08:07:28.833Z,11.20
2023-10-07T08:10:05.813Z,10.20
2023-10-07T08:12:37.100Z,10.30
2023-10-07T08:15:14.950Z,9.10
2023-10-07T08:17:46.551Z,10.40
2023-10-07T08:20:16.240Z,9.60
2023-10-07T08:22:47.563Z,11.40
2023-10-07T08:25:34.648Z,11.40
2023-10-07T08:28:19.535Z,10.90
2023-10-07T08:30:50.603Z,11.40
2023-10-07T08:33:25.061Z,11.80
2023-10-07T08:35:53.199Z,11.90
2023-10-07T08:38:22.882Z,11.00
2023-10-07T08:41:06.076Z,11.10
2023-10-07T08:43:39.275Z,10.60
2023-10-07T08:46:13.705Z,8.70
2023-10-07T08:48:50.877Z,9.90
2023-10-07T08:51:24.146Z,8.20
2023-10-07T08:53:58.701Z,9.80
2023-10-07T08:56:29.680Z,11.90
2023-10-07T08:58:58.421Z,11.50
2023-10-07T09:01:27.616Z,10.00
2023-10-07T09:04:02.270Z,10.20
2023-10-07T09:06:34.042Z,10.90
2023-10-07T09:09:07.970Z,10.60
2023-10-07T09:11:40.766Z,10.40
2023-10-07T09:14:11.575Z,8.90
2023-10-07T09:16:43.786Z,10.20
2023-10-07T09:19:14.411Z,10.10
2023-10-07T09:21:46.312Z,11.40
2023-10-07T09:24:26.829Z,9.50
2023-10-07T09:26:58.229Z,10.90
2023-10-07T09:29:30.491Z,9.30
2023-10-07T09:32:06.021Z,8.90
2023-10-07T09:34:48.954Z,8.50
2023-10-07T09:37:27.728Z,8.20
2023-10-07T09:39:56.876Z,7.10
2023-10-07T09:42:28.327Z,8.00
2023-10-07T09:45:22.224Z,6.20
2023-10-07T09:47:50.409Z,6.80
2023-10-07T09:50:28.814Z,5.00
2023-10-07T09:53:23.011Z,5.20
2023-10-07T09:56:22.282Z,6.10
2023-10-07T09:59:15.323Z,5.30
2023-10-07T10:02:28.404Z,6.40
2023-10-07T10:05:27.641Z,7.20
2023-10-07T10:08:14.380Z,5.90
2023-10-07T10:10:46.170Z,6.40
2023-10-07T10:13:31.334Z,5.60
2023-10-07T10:16:05.673Z,5.90
2023-10-07T10:18:37.151Z,5.90
2023-10-07T10:21:07.092Z,6.80
2023-10-07T10:23:35.403Z,7.40
2023-10-07T10:26:15.809Z,5.20
2023-10-07T10:29:01.718Z,5.40
2023-10-07T10:31:33.629Z,5.20
2023-10-07T10:34:16.047Z,6.90
2023-10-07T10:36:50.642Z,6.10
2023-10-07T10:39:42.319Z,6.10
2023-10-07T10:42:16.265Z,6.40
2023-10-07T10:44:49.033Z,6.10
2023-10-07T10:47:19.756Z,5.10
2023-10-07T10:49:55.755Z,6.00
2023-10-07T10:52:24.139Z,4.80
2023-10-07T10:54:54.249Z,5.10
2023-10-07T10:57:25.301Z,4.30
2023-10-07T10:59:53.727Z,4.90
2023-10-07T11:02:22.906Z,5.00
2023-10-07T11:04:52.671Z,4.30
2023-10-07T11:07:22.927Z,5.60
2023-10-07T11:09:55.358Z,4.70
2023-10-07T11:12:28.658Z,4.80
2023-10-07T11:15:14.829Z,4.80
2023-10-07T11:17:54.150Z,4.50
2023-10-07T11:20:25.594Z,4.30
2023-10-07T11:22:54.714Z,4.40
2023-10-07T11:25:29.480Z,5.20
2023-10-07T11:27:59.932Z,4.50
2023-10-07T11:30:28.136Z,4.70
2023-10-07T11:32:56.280Z,4.70
2023-10-07T11:35:31.646Z,4.20
2023-10-07T11:38:00.263Z,4.20
2023-10-07T11:43:05.934Z,4.60
2023-10-07T11:45:34.817Z,5.40
2023-10-07T11:50:36.538Z,6.70
2023-10-07T11:53:08.142Z,5.60
2023-10-07T11:55:37.032Z,6.00
2023-10-07T11:58:09.201Z,5.00
2023-10-07T12:00:38.036Z,4.90
2023-10-07T12:03:09.911Z,5.30
2023-10-07T12:05:44.288Z,4.40
2023-10-07T12:08:15.294Z,4.40
2023-10-07T12:10:43.522Z,4.50
2023-10-07T12:13:16.267Z,5.60
2023-10-07T12:18:15.546Z,5.70
2023-10-07T12:20:44.278Z,4.50
2023-10-07T12:23:12.515Z,4.40
2023-10-07T12:25:42.842Z,5.80
2023-10-07T12:28:11.091Z,4.70
2023-10-07T12:30:39.102Z,4.80
2023-10-07T12:33:17.410Z,5.50
2023-10-07T12:35:52.526Z,5.60
2023-10-07T12:38:21.674Z,6.20
2023-10-07T12:40:50.145Z,6.00
2023-10-07T12:43:18.381Z,5.20
2023-10-07T12:45:49.000Z,5.30
2023-10-07T12:48:17.391Z,5.30
2023-10-07T12:50:51.412Z,6.20
2023-10-07T12:53:19.985Z,5.60
2023-10-07T12:55:50.536Z,7.00
2023-10-07T12:58:19.683Z,5.80
2023-10-07T13:00:52.980Z,5.70
2023-10-07T13:03:21.241Z,5.70
2023-10-07T13:05:49.668Z,6.50
2023-10-07T13:08:17.865Z,5.50
2023-10-07T13:10:47.445Z,4.40
2023-10-07T13:13:15.863Z,4.40
2023-10-07T13:15:44.892Z,5.20
2023-10-07T13:18:14.585Z,5.40
2023-10-07T13:20:42.945Z,5.00
2023-10-07T13:23:13.099Z,4.60
2023-10-07T13:25:41.571Z,5.20
2023-10-07T13:28:11.348Z,3.90
2023-10-07T13:30:40.239Z,4.60
2023-10-07T13:33:08.531Z,4.60
2023-10-07T13:35:38.846Z,4.40
2023-10-07T13:38:12.045Z,3.80
2023-10-07T13:40:40.345Z,4.00
2023-10-07T13:43:11.117Z,3.90
2023-10-07T13:45:39.288Z,4.20
2023-10-07T13:48:09.046Z,4.40
2023-10-07T13:50:40.726Z,3.80
2023-10-07T13:53:08.940Z,3.90
2023-10-07T13:55:43.599Z,3.70
2023-10-07T13:58:16.021Z,4.50
2023-10-07T14:00:55.231Z,4.00
2023-10-07T14:03:33.089Z,4.40
2023-10-07T14:06:03.679Z,5.30
2023-10-07T14:08:37.208Z,4.80
2023-10-07T14:11:08.116Z,4.60
2023-10-07T14:13:37.691Z,5.10
2023-10-07T14:18:47.710Z,3.60
2023-10-07T14:21:16.164Z,4.50
2023-10-07T14:23:44.467Z,5.00
2023-10-07T14:26:15.743Z,4.00
2023-10-07T14:28:47.054Z,4.10
2023-10-07T14:31:19.882Z,5.00
2023-10-07T14:33:48.791Z,4.20
2023-10-07T14:38:45.140Z,4.00
2023-10-07T14:41:14.741Z,5.90
2023-10-07T14:43:44.828Z,4.50
2023-10-07T14:46:13.258Z,5.30
2023-10-07T14:48:46.194Z,5.30
2023-10-07T14:51:15.194Z,6.00
2023-10-07T14:53:43.385Z,4.30
2023-10-07T14:56:12.601Z,4.80
2023-10-07T14:58:41.383Z,5.40
2023-10-07T15:06:16.889Z,5.80
2023-10-07T15:08:45.903Z,6.40
2023-10-07T15:11:19.275Z,6.90
2023-10-07T15:13:50.948Z,6.60
2023-10-07T15:16:22.370Z,4.70
2023-10-07T15:18:51.229Z,5.10
2023-10-07T15:23:51.446Z,5.50
2023-10-07T15:26:19.910Z,5.70
2023-10-07T15:28:49.688Z,4.80
2023-10-07T15:31:26.732Z,5.70
2023-10-07T15:33:57.445Z,5.30
2023-10-07T15:36:26.103Z,5.10
2023-10-07T15:38:54.492Z,5.80
2023-10-07T15:41:22.612Z,5.30
2023-10-07T15:43:51.491Z,5.40
2023-10-07T15:46:19.735Z,5.60
2023-10-07T15:48:48.799Z,6.20
2023-10-07T15:51:19.126Z,5.40
2023-10-07T15:53:47.422Z,6.80
2023-10-07T15:56:19.130Z,6.30
2023-10-07T15:58:48.845Z,8.30
2023-10-07T16:01:17.334Z,7.70
2023-10-07T16:03:45.730Z,6.40
2023-10-07T16:06:16.340Z,7.00
2023-10-07T16:08:45.936Z,6.60
2023-10-07T16:11:19.331Z,6.10
2023-10-07T16:13:47.884Z,7.70
2023-10-07T16:16:16.587Z,6.90
2023-10-07T16:18:46.840Z,9.90
2023-10-07T16:21:17.436Z,9.30
2023-10-07T16:23:46.078Z,8.30
2023-10-07T16:26:15.637Z,8.70
2023-10-07T16:28:45.338Z,8.60
2023-10-07T16:31:14.618Z,8.90
2023-10-07T16:33:43.685Z,9.30
2023-10-07T16:36:11.838Z,9.20
2023-10-07T16:38:42.416Z,11.50
2023-10-07T16:41:18.643Z,9.30
2023-10-07T16:43:47.180Z,14.10
2023-10-07T16:46:16.230Z,10.50
2023-10-07T16:51:14.568Z,12.50
2023-10-07T16:53:43.707Z,13.70
2023-10-07T16:56:14.164Z,20.70
2023-10-07T16:58:42.661Z,21.80
2023-10-07T17:01:11.526Z,17.10
2023-10-07T17:03:39.787Z,16.50
2023-10-07T17:06:08.308Z,16.30
2023-10-07T17:08:37.250Z,14.40
2023-10-07T17:11:05.784Z,17.20
2023-10-07T17:13:33.953Z,16.40
2023-10-07T17:16:02.211Z,19.20
2023-10-07T17:18:30.399Z,21.00
2023-10-07T17:21:00.718Z,17.80
2023-10-07T17:23:29.425Z,18.00
2023-10-07T17:25:57.608Z,20.50
2023-10-07T17:28:26.236Z,18.70
2023-10-07T17:30:54.579Z,15.40
2023-10-07T17:33:22.835Z,16.50
2023-10-07T17:35:51.524Z,16.90
2023-10-07T17:38:22.769Z,16.60
2023-10-07T17:40:50.853Z,17.10
2023-10-07T17:43:19.261Z,17.90
2023-10-07T17:45:47.371Z,18.90
2023-10-07T17:48:19.131Z,19.20
2023-10-07T17:50:47.382Z,20.10
2023-10-07T17:53:17.316Z,18.80
2023-10-07T17:55:46.068Z,17.80
2023-10-07T17:58:14.289Z,18.40
2023-10-07T18:00:42.482Z,19.80
2023-10-07T18:03:13.741Z,16.50
2023-10-07T18:05:44.248Z,11.70
2023-10-07T18:08:12.457Z,13.70
2023-10-07T18:10:40.915Z,13.60
2023-10-07T18:13:09.130Z,12.00
2023-10-07T18:15:41.917Z,10.50
2023-10-07T18:18:10.552Z,10.70
2023-10-07T18:20:38.712Z,12.70
2023-10-07T18:23:07.034Z,12.10
2023-10-07T18:25:37.278Z,12.60
2023-10-07T18:28:05.436Z,13.80
2023-10-07T18:30:33.684Z,20.20
2023-10-07T18:33:03.523Z,14.50
2023-10-07T18:35:32.496Z,14.20
2023-10-07T18:38:01.386Z,14.80
2023-10-07T18:40:29.662Z,15.00
2023-10-07T18:42:57.878Z,15.50
2023-10-07T18:45:25.887Z,14.60
2023-10-07T18:47:57.533Z,16.20
2023-10-07T18:50:26.755Z,14.00
2023-10-07T18:52:55.062Z,15.70
2023-10-07T18:55:23.322Z,16.30
2023-10-07T18:57:52.160Z,15.60
2023-10-07T19:00:20.332Z,14.00
2023-10-07T19:02:48.752Z,17.20
2023-10-07T19:05:17.348Z,15.40
2023-10-07T19:07:46.619Z,14.30
2023-10-07T19:10:17.158Z,14.50
2023-10-07T19:12:48.239Z,17.70
2023-10-07T19:15:17.429Z,16.60
2023-10-07T19:20:17.361Z,14.30
2023-10-07T19:22:45.473Z,15.90
2023-10-07T19:25:15.427Z,16.20
2023-10-07T19:27:44.210Z,15.50
2023-10-07T19:30:14.849Z,18.00
2023-10-07T19:32:43.871Z,13.60
2023-10-07T19:35:14.660Z,14.20
2023-10-07T19:37:42.774Z,12.10
2023-10-07T19:40:11.720Z,12.60
2023-10-07T19:42:40.692Z,12.90
2023-10-07T19:45:11.254Z,14.00
2023-10-07T19:47:44.370Z,12.80
2023-10-07T19:50:12.713Z,12.70
2023-10-07T19:52:41.646Z,13.40
2023-10-07T19:55:10.180Z,13.50
2023-10-07T19:57:38.333Z,12.10
2023-10-07T20:00:07.808Z,15.40
2023-10-07T20:02:36.870Z,15.20
2023-10-07T20:07:36.977Z,17.60
2023-10-07T20:10:10.373Z,21.50
2023-10-07T20:12:40.657Z,20.00
2023-10-07T20:15:09.768Z,19.40
2023-10-07T20:17:39.884Z,17.60
2023-10-07T20:20:11.719Z,17.20
2023-10-07T20:22:40.798Z,17.20
2023-10-07T20:25:10.198Z,18.00
2023-10-07T20:27:40.101Z,15.10
2023-10-07T20:30:08.849Z,14.80
2023-10-07T20:32:37.738Z,14.30
2023-10-07T20:35:09.608Z,14.80
2023-10-07T20:37:38.536Z,15.20
2023-10-07T20:40:08.358Z,18.30
2023-10-07T20:42:36.513Z,15.90
2023-10-07T20:45:05.922Z,16.80
2023-10-07T20:47:34.779Z,15.00
2023-10-07T20:50:07.987Z,15.30
2023-10-07T20:52:36.757Z,16.80
2023-10-07T20:55:06.549Z,15.80
2023-10-07T20:57:35.467Z,15.90
2023-10-07T21:00:06.272Z,15.00
2023-10-07T21:02:35.305Z,16.80
2023-10-07T21:05:03.542Z,18.20
2023-10-07T21:07:32.202Z,16.10
2023-10-07T21:10:00.381Z,18.30
2023-10-07T21:12:28.556Z,18.30
2023-10-07T21:14:56.648Z,17.20
2023-10-07T21:17:25.154Z,16.00
2023-10-07T21:19:54.483Z,15.70
2023-10-07T21:22:22.614Z,14.50
2023-10-07T21:24:50.939Z,15.50
2023-10-07T21:27:19.014Z,15.90
2023-10-07T21:29:47.475Z,18.90
2023-10-07T21:32:16.634Z,19.40
2023-10-07T21:37:12.806Z,19.60
2023-10-07T21:39:40.865Z,18.60
2023-10-07T21:42:09.037Z,18.50
2023-10-07T21:44:37.072Z,19.10
2023-10-07T21:47:05.385Z,22.20
2023-10-07T21:49:33.736Z,23.40
2023-10-07T21:52:01.874Z,21.80
2023-10-07T21:54:30.979Z,20.70
2023-10-07T21:56:59.065Z,21.60
2023-10-07T21:59:27.640Z,23.30
2023-10-07T22:01:55.852Z,22.30
2023-10-07T22:04:23.968Z,25.70
2023-10-07T22:06:52.988Z,26.00
2023-10-07T22:09:21.182Z,22.70
2023-10-07T22:11:51.174Z,20.70
2023-10-07T22:14:19.518Z,17.80
2023-10-07T22:16:47.923Z,17.70
2023-10-07T22:19:16.634Z,20.10
2023-10-07T22:21:44.759Z,21.00
2023-10-07T22:24:15.163Z,22.80
2023-10-07T22:26:43.258Z,20.30
2023-10-07T22:29:12.566Z,21.70
2023-10-07T22:31:48.436Z,20.80
2023-10-07T22:34:18.780Z,21.80
2023-10-07T22:36:46.918Z,21.30
2023-10-07T22:39:32.857Z,19.80
2023-10-07T22:42:13.326Z,17.90
2023-10-07T22:44:47.009Z,15.70
2023-10-07T22:47:15.587Z,20.00
2023-10-07T22:49:46.942Z,19.40
2023-10-07T22:52:15.102Z,16.60
2023-10-07T22:54:51.350Z,18.10
2023-10-07T22:57:19.503Z,19.60
2023-10-07T22:59:48.515Z,19.20
2023-10-07T23:04:58.358Z,22.80
2023-10-07T23:07:27.744Z,25.30
2023-10-07T23:10:00.307Z,27.60
2023-10-07T23:12:29.666Z,26.90
2023-10-07T23:15:00.107Z,22.70
2023-10-07T23:17:32.697Z,18.00
2023-10-07T23:20:27.890Z,19.10
2023-10-07T23:23:13.327Z,22.80
2023-10-07T23:25:43.540Z,19.50
2023-10-07T23:28:32.125Z,22.30
2023-10-07T23:31:12.471Z,21.60
2023-10-07T23:33:40.576Z,26.70
2023-10-07T23:36:18.773Z,24.00
2023-10-07T23:38:50.643Z,22.60
2023-10-07T23:41:26.613Z,20.60
2023-10-07T23:43:56.247Z,22.40
2023-10-07T23:46:24.897Z,18.20
2023-10-07T23:48:58.743Z,20.50
2023-10-07T23:51:33.350Z,21.10
2023-10-07T23:54:05.319Z,16.30
2023-10-07T23:56:34.195Z,19.30
2023-10-07T23:59:11.029Z,22.30
